Time;durP1;ratioP1;P1;durP2;ratioP2;P2;SDS_P1;SDS_P2;PMS_P1;PMS_P2;Temp;Humidity;BMP_temperature;BMP_pressure;BME280_temperature;BME280_humidity;BME280_pressure;Samples;Min_cycle;Max_cycle;Signal;HPM_P1;HPM_P2
2022/11/03 00:01:55;;;;;;;18.27;3.38;;;13.40;99.90;;;;;;5107953;28;20108;-72
2022/11/03 00:04:22;;;;;;;11.85;2.50;;;13.40;99.90;;;;;;5107232;28;20035;-72
2022/11/03 00:06:50;;;;;;;12.02;2.97;;;13.40;99.90;;;;;;5102450;28;20024;-72
2022/11/03 00:09:17;;;;;;;11.68;3.42;;;13.40;99.90;;;;;;5105535;28;20072;-72
2022/11/03 00:11:45;;;;;;;14.85;3.42;;;13.40;99.90;;;;;;5108268;28;20128;-72
2022/11/03 00:14:13;;;;;;;13.43;4.30;;;13.40;99.90;;;;;;5103724;28;20032;-72
2022/11/03 00:16:39;;;;;;;13.38;3.08;;;13.40;99.90;;;;;;5102155;28;20028;-72
2022/11/03 00:19:06;;;;;;;14.65;3.15;;;13.40;99.90;;;;;;5102028;28;20039;-72
2022/11/03 00:21:32;;;;;;;12.00;2.78;;;13.40;99.90;;;;;;5105284;28;20024;-72
2022/11/03 00:23:58;;;;;;;14.60;2.88;;;13.40;99.90;;;;;;5088005;28;20030;-72
2022/11/03 00:26:26;;;;;;;14.65;2.90;;;13.50;99.90;;;;;;5108046;28;20099;-72
2022/11/03 00:28:54;;;;;;;18.65;3.53;;;13.50;99.90;;;;;;5107296;28;20476;-72
2022/11/03 00:31:31;;;;;;;19.67;2.95;;;13.50;99.90;;;;;;5104519;28;20036;-72
2022/11/03 00:33:59;;;;;;;12.85;3.13;;;13.50;99.90;;;;;;5108755;28;20027;-72
2022/11/03 00:36:33;;;;;;;11.48;2.70;;;13.50;99.90;;;;;;5109062;28;20077;-72
2022/11/03 00:38:59;;;;;;;13.57;3.20;;;13.40;99.90;;;;;;5109109;28;20023;-72
2022/11/03 00:41:25;;;;;;;11.07;2.50;;;13.40;99.90;;;;;;5102136;28;20168;-72
2022/11/03 00:43:52;;;;;;;13.30;2.72;;;13.40;99.90;;;;;;5087815;28;20027;-72
2022/11/03 00:46:19;;;;;;;14.55;3.42;;;13.40;99.90;;;;;;5084645;28;20388;-72
2022/11/03 00:48:45;;;;;;;16.55;2.65;;;13.40;99.90;;;;;;5104752;28;20023;-72
2022/11/03 00:51:22;;;;;;;13.73;2.65;;;13.50;99.90;;;;;;5105173;28;20655;-72
2022/11/03 00:53:54;;;;;;;11.35;2.15;;;13.50;99.90;;;;;;5101423;28;20090;-72
2022/11/03 00:56:28;;;;;;;15.52;2.75;;;13.50;99.90;;;;;;5105989;28;20015;-72
2022/11/03 00:58:54;;;;;;;13.05;3.38;;;13.50;99.90;;;;;;5100746;28;20028;-72
2022/11/03 01:01:21;;;;;;;17.50;2.70;;;13.50;99.90;;;;;;5102092;28;20024;-72
2022/11/03 01:06:48;;;;;;;14.45;3.67;;;13.50;99.90;;;;;;5102152;28;20486;-72
2022/11/03 01:09:22;;;;;;;13.98;2.83;;;13.60;99.90;;;;;;5103665;28;20115;-72
2022/11/03 01:12:14;;;;;;;15.30;3.03;;;13.60;99.90;;;;;;5103871;28;20038;-72
2022/11/03 01:14:42;;;;;;;17.65;3.10;;;13.60;99.90;;;;;;5108487;28;20023;-72
2022/11/03 01:17:10;;;;;;;9.68;3.03;;;13.60;99.90;;;;;;5108519;28;20465;-72
2022/11/03 01:19:36;;;;;;;9.00;2.25;;;13.50;99.90;;;;;;5108440;28;20031;-72
2022/11/03 01:22:01;;;;;;;13.70;2.95;;;13.60;99.90;;;;;;5107200;28;20042;-72
2022/11/03 01:24:27;;;;;;;13.60;3.10;;;13.50;99.90;;;;;;5109993;27;20019;-72
2022/11/03 01:26:53;;;;;;;19.52;3.08;;;13.60;99.90;;;;;;5104738;28;20476;-72
2022/11/03 01:29:18;;;;;;;18.38;3.25;;;13.60;99.90;;;;;;5108448;28;20032;-72
2022/11/03 01:31:44;;;;;;;10.90;2.60;;;13.50;99.90;;;;;;5093999;28;20030;-72
2022/11/03 01:34:15;;;;;;;13.15;3.10;;;13.60;99.90;;;;;;5109323;27;20020;-72
2022/11/03 01:36:41;;;;;;;10.35;2.67;;;13.60;99.90;;;;;;5105688;28;20099;-72
2022/11/03 01:39:10;;;;;;;9.60;2.83;;;13.60;99.90;;;;;;5104587;27;20035;-71
2022/11/03 01:41:36;;;;;;;13.32;2.88;;;13.60;99.90;;;;;;5106283;28;20035;-72
2022/11/03 01:44:07;;;;;;;11.63;2.53;;;13.60;99.90;;;;;;5110251;28;20543;-72
2022/11/03 01:46:51;;;;;;;9.43;2.45;;;13.60;99.90;;;;;;5089144;28;20423;-72
2022/11/03 01:49:41;;;;;;;14.07;2.70;;;13.70;99.90;;;;;;5111021;28;20028;-72
2022/11/03 01:52:28;;;;;;;8.25;2.30;;;13.70;99.90;;;;;;5101795;28;20131;-72
2022/11/03 01:54:58;;;;;;;12.93;2.92;;;13.70;99.90;;;;;;5108394;28;20024;-72
2022/11/03 01:57:29;;;;;;;14.38;2.75;;;13.70;99.90;;;;;;5105191;28;20043;-72
2022/11/03 01:59:57;;;;;;;15.50;2.63;;;13.70;99.90;;;;;;5108617;28;20036;-72
2022/11/03 02:02:23;;;;;;;13.40;2.47;;;13.80;99.90;;;;;;5090009;28;20031;-72
2022/11/03 02:04:49;;;;;;;13.70;2.85;;;13.70;99.90;;;;;;5107356;28;20030;-72
2022/11/03 02:07:23;;;;;;;14.02;2.83;;;13.70;99.90;;;;;;5104110;27;20387;-72
2022/11/03 02:09:49;;;;;;;15.48;2.70;;;13.80;99.90;;;;;;5112230;28;20527;-72
2022/11/03 02:12:16;;;;;;;19.98;3.95;;;13.70;99.90;;;;;;5105058;28;20115;-72
2022/11/03 02:14:52;;;;;;;18.90;3.65;;;13.70;99.90;;;;;;5107648;28;20425;-72
2022/11/03 02:17:21;;;;;;;12.85;2.65;;;13.70;99.90;;;;;;5105224;28;20088;-72
2022/11/03 02:19:51;;;;;;;10.05;3.25;;;13.70;99.90;;;;;;5110056;28;20035;-72
2022/11/03 02:22:52;;;;;;;10.88;2.70;;;13.70;99.90;;;;;;5093290;28;20035;-72
2022/11/03 02:25:39;;;;;;;12.88;2.78;;;13.80;99.90;;;;;;5109775;28;20418;-72
2022/11/03 02:28:05;;;;;;;11.35;2.78;;;13.70;99.90;;;;;;5092710;28;20471;-72
2022/11/03 02:30:55;;;;;;;15.35;2.95;;;13.70;99.90;;;;;;5113803;28;20452;-72
2022/11/03 02:33:27;;;;;;;11.43;2.70;;;13.70;99.90;;;;;;5055678;28;20044;-72
2022/11/03 02:36:29;;;;;;;16.80;3.17;;;13.80;99.90;;;;;;5108304;28;20045;-72
2022/11/03 02:39:04;;;;;;;16.42;2.97;;;13.70;99.90;;;;;;5064505;28;20036;-72
2022/11/03 02:41:33;;;;;;;15.60;3.00;;;13.80;99.90;;;;;;5106245;28;20547;-72
2022/11/03 02:44:00;;;;;;;12.18;3.08;;;13.70;99.90;;;;;;5106074;28;20038;-72
2022/11/03 02:46:29;;;;;;;9.48;2.78;;;13.70;99.90;;;;;;5108324;28;20054;-72
2022/11/03 02:48:56;;;;;;;12.73;2.78;;;13.80;99.90;;;;;;5109132;28;20024;-72
2022/11/03 02:51:23;;;;;;;7.60;2.28;;;13.70;99.90;;;;;;5110367;28;20024;-72
2022/11/03 02:54:07;;;;;;;8.05;2.70;;;13.70;99.90;;;;;;5108935;28;20030;-72
2022/11/03 02:56:42;;;;;;;8.52;2.95;;;13.70;99.90;;;;;;5104501;27;20031;-72
2022/11/03 02:59:12;;;;;;;8.95;2.75;;;13.70;99.90;;;;;;5080696;28;20024;-72
2022/11/03 03:01:45;;;;;;;10.25;2.35;;;13.70;99.90;;;;;;5101695;28;20039;-72
2022/11/03 03:04:21;;;;;;;8.85;2.53;;;13.70;99.90;;;;;;5105511;28;20032;-72
2022/11/03 03:07:04;;;;;;;8.05;2.22;;;13.70;99.90;;;;;;5107111;28;20018;-72
2022/11/03 03:09:45;;;;;;;10.27;2.55;;;13.80;99.90;;;;;;5109075;28;20019;-72
2022/11/03 03:12:14;;;;;;;14.80;2.55;;;13.70;99.90;;;;;;5109971;28;20008;-72
2022/11/03 03:14:44;;;;;;;8.63;2.75;;;13.70;99.90;;;;;;5105702;28;20484;-73
2022/11/03 03:17:47;;;;;;;15.98;2.95;;;13.70;99.90;;;;;;5109304;28;20111;-73
2022/11/03 03:20:33;;;;;;;7.73;2.43;;;13.70;99.90;;;;;;5086694;28;20043;-72
2022/11/03 03:23:15;;;;;;;15.15;2.50;;;13.80;99.90;;;;;;5111331;28;20122;-72
2022/11/03 03:25:47;;;;;;;10.45;1.98;;;13.70;99.90;;;;;;5102931;28;20024;-72
2022/11/03 03:28:21;;;;;;;9.13;2.63;;;13.70;99.90;;;;;;5106889;28;20475;-72
2022/11/03 03:30:48;;;;;;;10.30;3.05;;;13.70;99.90;;;;;;5094968;28;20028;-72
2022/11/03 03:33:16;;;;;;;12.75;2.63;;;13.70;99.90;;;;;;5088187;28;20107;-72
2022/11/03 03:35:46;;;;;;;9.07;2.88;;;13.70;99.90;;;;;;5109947;28;20495;-72
2022/11/03 03:38:21;;;;;;;13.40;2.78;;;13.80;99.90;;;;;;5105045;28;20028;-72
2022/11/03 03:40:50;;;;;;;14.23;3.25;;;13.70;99.90;;;;;;5102194;27;20077;-72
2022/11/03 03:43:19;;;;;;;11.02;2.40;;;13.80;99.90;;;;;;5107179;28;20138;-73
2022/11/03 03:45:45;;;;;;;11.65;2.38;;;13.80;99.90;;;;;;5108724;28;20376;-72
2022/11/03 03:48:12;;;;;;;9.60;2.72;;;13.80;99.90;;;;;;5111541;28;20031;-72
2022/11/03 03:50:40;;;;;;;10.75;2.92;;;13.80;99.90;;;;;;5112187;28;20055;-72
2022/11/03 03:53:10;;;;;;;14.57;2.70;;;13.80;99.90;;;;;;5104266;28;20031;-72
2022/11/03 03:55:39;;;;;;;12.73;2.30;;;13.80;99.90;;;;;;5105333;28;20030;-72
2022/11/03 03:58:06;;;;;;;10.43;2.70;;;13.80;99.90;;;;;;5090967;28;20454;-72
2022/11/03 04:00:32;;;;;;;12.77;3.03;;;13.70;99.90;;;;;;5105911;27;20046;-72
2022/11/03 04:02:58;;;;;;;14.77;2.83;;;13.80;99.90;;;;;;5109164;28;20105;-72
2022/11/03 04:05:25;;;;;;;12.57;3.25;;;13.80;99.90;;;;;;5090237;28;20012;-72
2022/11/03 04:07:51;;;;;;;9.90;2.65;;;13.80;99.90;;;;;;5102527;28;20118;-72
2022/11/03 04:10:21;;;;;;;14.85;3.10;;;13.90;99.90;;;;;;5105645;28;20048;-72
2022/11/03 04:23:46;;;;;;;13.07;2.80;;;13.90;99.90;;;;;;5110688;28;20047;-72
2022/11/03 04:26:14;;;;;;;14.07;3.13;;;14.00;99.90;;;;;;5100435;27;20024;-73
2022/11/03 04:28:41;;;;;;;12.00;1.80;;;13.90;99.90;;;;;;5108524;28;20051;-72
2022/11/03 04:31:12;;;;;;;10.30;2.88;;;13.90;99.90;;;;;;5098812;28;20042;-73
2022/11/03 04:33:38;;;;;;;12.57;2.67;;;13.90;99.90;;;;;;5107128;28;20033;-72
2022/11/03 04:36:19;;;;;;;13.38;3.40;;;13.90;99.90;;;;;;5112712;28;20463;-72
2022/11/03 04:38:46;;;;;;;14.52;3.10;;;13.90;99.90;;;;;;5103596;28;20032;-72
2022/11/03 04:41:23;;;;;;;14.13;2.90;;;13.90;99.90;;;;;;5108114;28;20027;-73
2022/11/03 04:43:51;;;;;;;13.15;3.50;;;13.90;99.90;;;;;;5105970;28;20040;-72
2022/11/03 04:46:24;;;;;;;10.13;2.78;;;13.90;99.90;;;;;;5103636;28;20028;-72
2022/11/03 04:48:51;;;;;;;16.67;2.88;;;13.90;99.90;;;;;;5108956;28;20028;-72
2022/11/03 04:51:19;;;;;;;12.90;2.80;;;13.90;99.90;;;;;;5100641;28;20028;-72
2022/11/03 04:53:52;;;;;;;13.25;3.10;;;14.00;99.90;;;;;;5102708;28;20114;-72
2022/11/03 04:56:20;;;;;;;;;;;13.90;99.90;;;;;;5098537;28;20056;-72
2022/11/03 04:58:47;;;;;;;15.32;2.65;;;14.00;99.90;;;;;;5088059;28;20048;-72
2022/11/03 05:01:16;;;;;;;10.35;2.63;;;14.00;99.90;;;;;;5101274;28;20016;-72
2022/11/03 05:03:43;;;;;;;12.73;2.75;;;14.00;99.90;;;;;;5104037;28;20028;-72
2022/11/03 05:06:25;;;;;;;11.50;2.83;;;13.90;99.90;;;;;;5108182;28;20024;-72
2022/11/03 05:08:55;;;;;;;11.47;2.87;;;14.00;99.90;;;;;;5101597;28;20046;-72
2022/11/03 05:11:33;;;;;;;11.27;2.67;;;14.00;99.90;;;;;;5105718;28;20023;-72
2022/11/03 05:14:03;;;;;;;11.98;2.95;;;13.90;99.90;;;;;;5101805;28;20016;-72
2022/11/03 05:16:30;;;;;;;13.30;3.15;;;13.90;99.90;;;;;;5101445;28;20533;-73
2022/11/03 05:18:56;;;;;;;10.30;3.15;;;13.90;99.90;;;;;;5103282;28;20035;-72
2022/11/03 05:21:25;;;;;;;10.95;3.35;;;13.90;99.90;;;;;;5103455;28;20106;-72
2022/11/03 05:24:00;;;;;;;11.95;3.25;;;13.90;99.90;;;;;;5102489;28;20398;-72
2022/11/03 05:26:33;;;;;;;9.93;2.70;;;13.90;99.90;;;;;;5099078;28;20480;-73
2022/11/03 05:29:02;;;;;;;17.60;3.05;;;14.00;99.90;;;;;;5102190;28;20043;-72
2022/11/03 05:31:30;;;;;;;9.65;2.97;;;14.00;99.90;;;;;;5106722;28;20027;-72
2022/11/03 05:34:17;;;;;;;8.60;2.83;;;13.90;99.90;;;;;;5082343;28;20476;-72
2022/11/03 05:36:43;;;;;;;17.83;3.28;;;13.90;99.90;;;;;;5104193;28;20033;-72
2022/11/03 05:39:30;;;;;;;8.90;2.58;;;13.90;99.90;;;;;;5108530;28;20370;-72
2022/11/03 05:41:58;;;;;;;10.82;3.30;;;13.90;99.90;;;;;;5100190;28;20131;-73
2022/11/03 05:44:38;;;;;;;9.10;2.67;;;13.80;99.90;;;;;;5102608;28;20028;-73
2022/11/03 05:47:33;;;;;;;12.00;3.03;;;13.90;99.90;;;;;;5111045;28;20023;-72
2022/11/03 05:50:09;;;;;;;14.18;2.97;;;13.80;99.90;;;;;;5099401;28;20521;-73
2022/11/03 05:52:35;;;;;;;17.13;3.10;;;13.90;99.90;;;;;;5101256;28;20020;-73
2022/11/03 05:55:02;;;;;;;12.52;2.47;;;13.90;99.90;;;;;;5107192;28;20115;-73
2022/11/03 05:57:28;;;;;;;6.47;2.38;;;13.90;99.90;;;;;;5103190;28;20028;-72
2022/11/03 05:59:55;;;;;;;14.40;3.13;;;14.00;99.90;;;;;;5099968;28;20035;-72
2022/11/03 06:02:42;;;;;;;14.07;3.08;;;13.90;99.90;;;;;;5104666;28;20071;-73
2022/11/03 06:05:18;;;;;;;11.43;2.40;;;13.90;99.90;;;;;;5094658;28;20035;-73
2022/11/03 06:07:44;;;;;;;11.05;2.50;;;13.90;99.90;;;;;;5094630;28;20536;-73
2022/11/03 06:10:24;;;;;;;14.48;2.75;;;13.90;99.90;;;;;;5110900;28;20031;-73
2022/11/03 06:12:52;;;;;;;11.85;3.28;;;13.80;99.90;;;;;;5108647;28;20027;-73
2022/11/03 06:15:25;;;;;;;11.75;3.42;;;13.90;99.90;;;;;;5105435;28;20484;-72
2022/11/03 06:17:52;;;;;;;12.02;2.63;;;13.90;99.90;;;;;;5089896;28;20483;-75
2022/11/03 06:20:21;;;;;;;12.13;3.38;;;13.90;99.90;;;;;;5108333;28;20039;-73
2022/11/03 06:22:49;;;;;;;14.73;2.75;;;13.90;99.90;;;;;;5108076;27;20590;-72
2022/11/03 06:25:24;;;;;;;15.82;3.58;;;13.80;99.90;;;;;;5105751;28;20038;-73
2022/11/03 06:27:51;;;;;;;13.65;3.28;;;13.90;99.90;;;;;;5107997;28;20027;-73
2022/11/03 06:30:24;;;;;;;15.77;3.42;;;13.90;99.90;;;;;;5109652;28;20089;-72
2022/11/03 06:32:50;;;;;;;15.15;3.45;;;13.90;99.90;;;;;;5108070;28;20032;-73
2022/11/03 06:35:16;;;;;;;26.67;10.65;;;13.90;99.90;;;;;;5087962;28;20031;-73
2022/11/03 06:37:42;;;;;;;9.25;2.53;;;13.90;99.90;;;;;;5107092;28;20031;-73
2022/11/03 06:40:14;;;;;;;15.30;2.72;;;13.90;99.90;;;;;;5106325;28;20031;-73
2022/11/03 06:42:41;;;;;;;11.27;2.80;;;13.90;99.90;;;;;;5110846;28;20089;-73
2022/11/03 06:45:19;;;;;;;15.27;3.10;;;13.90;99.90;;;;;;5088422;28;20480;-73
2022/11/03 06:47:45;;;;;;;10.20;2.67;;;13.90;99.90;;;;;;5109715;28;20034;-73
2022/11/03 06:50:24;;;;;;;8.43;2.67;;;13.90;99.90;;;;;;5105159;27;20092;-73
2022/11/03 06:52:51;;;;;;;12.07;3.00;;;14.00;99.90;;;;;;5106620;28;20058;-73
2022/11/03 06:55:31;;;;;;;6.85;2.28;;;13.90;99.90;;;;;;5102356;28;20054;-72
2022/11/03 06:58:11;;;;;;;10.75;2.90;;;13.90;99.90;;;;;;5104013;28;20040;-71
2022/11/03 07:00:39;;;;;;;14.32;2.80;;;13.90;99.90;;;;;;5102573;27;20024;-71
2022/11/03 07:03:30;;;;;;;11.63;2.78;;;14.10;99.90;;;;;;5106187;28;20033;-74
2022/11/03 07:06:12;;;;;;;14.88;2.97;;;14.00;99.90;;;;;;5105033;28;20031;-72
2022/11/03 07:08:42;;;;;;;12.88;3.03;;;14.00;99.90;;;;;;5086620;28;20403;-72
2022/11/03 07:11:44;;;;;;;11.88;2.65;;;14.10;99.90;;;;;;5105529;28;20089;-73
2022/11/03 07:14:14;;;;;;;13.57;2.88;;;14.00;99.90;;;;;;5074358;28;20365;-72
2022/11/03 07:17:13;;;;;;;16.10;2.90;;;14.00;99.90;;;;;;5085062;28;20422;-71
2022/11/03 07:19:42;;;;;;;14.38;2.80;;;14.10;99.90;;;;;;5096033;28;20051;-72
2022/11/03 07:22:15;;;;;;;13.93;3.28;;;14.00;99.90;;;;;;5104951;28;20043;-71
2022/11/03 07:24:44;;;;;;;10.55;3.45;;;14.10;99.90;;;;;;5109160;28;20111;-71
2022/11/03 07:27:24;;;;;;;13.25;2.90;;;14.10;99.90;;;;;;5104838;27;20040;-71
2022/11/03 07:29:51;;;;;;;16.08;2.92;;;14.10;99.90;;;;;;5107439;28;20058;-71
2022/11/03 07:32:29;;;;;;;13.27;2.63;;;14.10;99.90;;;;;;5101973;28;20476;-71
2022/11/03 07:35:09;;;;;;;13.68;3.25;;;14.20;99.90;;;;;;5108416;28;20027;-71
2022/11/03 07:37:35;;;;;;;14.68;3.00;;;14.30;99.90;;;;;;5089179;28;20041;-71
2022/11/03 07:40:00;;;;;;;9.55;3.00;;;14.30;99.90;;;;;;5106047;28;20023;-71
2022/11/03 07:42:27;;;;;;;13.43;2.70;;;14.30;99.90;;;;;;5101302;28;20069;-71
2022/11/03 07:44:55;;;;;;;10.85;2.63;;;14.20;99.90;;;;;;5109203;28;20102;-71
2022/11/03 07:47:25;;;;;;;10.15;3.13;;;14.30;99.90;;;;;;5102374;27;20028;-71
2022/11/03 07:49:51;;;;;;;14.40;3.25;;;14.30;99.90;;;;;;5109349;28;20039;-72
2022/11/03 07:52:23;;;;;;;8.63;3.10;;;14.40;99.90;;;;;;5085812;28;20490;-72
2022/11/03 07:54:51;;;;;;;10.30;2.28;;;14.40;99.90;;;;;;5108685;28;20107;-72
2022/11/03 07:57:27;;;;;;;12.35;3.03;;;14.30;99.90;;;;;;5107390;28;20027;-71
2022/11/03 07:59:57;;;;;;;15.88;2.97;;;14.30;99.90;;;;;;5110732;28;20436;-74
2022/11/03 08:02:36;;;;;;;10.80;2.85;;;14.30;99.90;;;;;;5105384;28;20496;-70
2022/11/03 08:05:02;;;;;;;13.70;2.42;;;14.30;99.90;;;;;;5109883;28;20027;-71
2022/11/03 08:07:29;;;;;;;14.02;2.88;;;14.40;99.90;;;;;;5108794;28;20050;-70
2022/11/03 08:09:55;;;;;;;13.73;3.40;;;14.40;99.90;;;;;;5105821;28;20031;-71
2022/11/03 08:12:21;;;;;;;14.23;3.35;;;14.40;99.90;;;;;;5109353;28;20494;-71
2022/11/03 08:14:46;;;;;;;11.70;3.10;;;14.40;99.90;;;;;;5106352;28;20103;-71
2022/11/03 08:17:13;;;;;;;11.40;2.80;;;14.40;99.90;;;;;;5103724;28;20531;-70
2022/11/03 08:19:39;;;;;;;14.77;3.15;;;14.40;99.90;;;;;;5102018;28;20027;-73
2022/11/03 08:22:05;;;;;;;6.93;2.65;;;14.40;99.90;;;;;;5103249;28;20388;-72
2022/11/03 08:24:30;;;;;;;8.00;2.50;;;14.50;99.90;;;;;;5101623;28;20039;-73
2022/11/03 08:26:56;;;;;;;13.23;3.08;;;14.50;99.90;;;;;;5105307;28;20028;-72
2022/11/03 08:29:23;;;;;;;10.80;3.55;;;14.50;99.90;;;;;;5108679;28;20041;-72
2022/11/03 08:31:49;;;;;;;7.65;2.17;;;14.60;99.90;;;;;;5105006;28;20024;-75
2022/11/03 08:34:15;;;;;;;12.40;2.72;;;14.50;99.90;;;;;;5105503;28;20404;-71
2022/11/03 08:36:40;;;;;;;11.10;2.55;;;14.60;99.90;;;;;;5087916;28;20031;-71
2022/11/03 08:39:06;;;;;;;13.70;2.83;;;14.60;99.90;;;;;;5106455;28;20031;-72
2022/11/03 08:41:31;;;;;;;10.63;2.38;;;14.60;99.90;;;;;;5100440;28;20055;-71
2022/11/03 08:43:57;;;;;;;14.02;2.35;;;14.70;99.90;;;;;;5108322;28;20036;-71
2022/11/03 08:46:23;;;;;;;12.50;3.17;;;14.60;99.90;;;;;;5104873;28;20088;-71
2022/11/03 08:48:48;;;;;;;10.95;2.83;;;14.70;99.90;;;;;;5105681;28;20527;-71
2022/11/03 08:51:15;;;;;;;8.48;2.65;;;14.80;99.90;;;;;;5104502;28;20020;-71
2022/11/03 08:53:45;;;;;;;9.27;2.17;;;14.80;99.90;;;;;;5101195;28;20030;-72
2022/11/03 08:56:11;;;;;;;9.20;2.88;;;14.90;99.90;;;;;;5102228;28;20476;-71
2022/11/03 08:58:37;;;;;;;9.70;2.58;;;14.90;99.90;;;;;;5107763;28;20476;-71
2022/11/03 09:01:03;;;;;;;13.20;2.45;;;14.90;99.90;;;;;;5100199;28;20020;-71
2022/11/03 09:03:29;;;;;;;9.93;2.38;;;15.00;99.90;;;;;;5100775;28;20418;-72
2022/11/03 09:05:54;;;;;;;11.23;2.95;;;15.00;99.90;;;;;;5104958;28;20020;-72
2022/11/03 09:08:20;;;;;;;9.25;2.20;;;15.10;99.90;;;;;;5105631;28;20032;-72
2022/11/03 09:10:46;;;;;;;11.18;2.85;;;15.00;99.90;;;;;;5105029;28;20034;-71
2022/11/03 09:13:11;;;;;;;7.93;2.22;;;15.00;99.90;;;;;;5102589;28;20061;-72
2022/11/03 09:15:37;;;;;;;11.05;2.80;;;15.00;99.90;;;;;;5105234;28;20548;-71
2022/11/03 09:18:03;;;;;;;13.00;2.80;;;15.00;99.90;;;;;;5101051;28;20035;-71
2022/11/03 09:20:29;;;;;;;7.47;2.70;;;15.00;99.90;;;;;;5104760;28;20035;-70
2022/11/03 09:22:55;;;;;;;10.68;2.53;;;15.00;99.90;;;;;;5088074;28;20126;-72
2022/11/03 09:25:20;;;;;;;9.45;2.30;;;15.00;99.90;;;;;;5102519;28;20098;-72
2022/11/03 09:27:46;;;;;;;15.95;2.40;;;15.00;99.90;;;;;;5087781;28;20076;-71
2022/11/03 09:30:12;;;;;;;7.43;2.25;;;15.10;99.90;;;;;;5102793;28;20028;-71
2022/11/03 09:32:38;;;;;;;6.00;2.00;;;15.10;99.90;;;;;;5103594;28;20077;-71
2022/11/03 09:35:05;;;;;;;9.20;2.08;;;15.00;99.90;;;;;;5111065;28;20111;-72
2022/11/03 09:37:30;;;;;;;8.65;2.22;;;15.00;99.90;;;;;;5102094;28;20028;-72
2022/11/03 09:39:56;;;;;;;11.23;2.63;;;14.90;99.90;;;;;;5111778;28;20026;-73
2022/11/03 09:42:22;;;;;;;12.52;2.58;;;14.90;99.90;;;;;;5102845;28;20028;-72
2022/11/03 09:44:50;;;;;;;7.20;2.38;;;15.00;99.90;;;;;;5111417;28;20106;-72
2022/11/03 09:47:38;;;;;;;11.20;2.90;;;15.00;99.90;;;;;;5103541;28;20016;-72
2022/11/03 09:50:05;;;;;;;9.13;2.28;;;15.00;99.90;;;;;;5112862;28;20076;-72
2022/11/03 09:52:32;;;;;;;7.72;2.45;;;15.00;99.90;;;;;;5107852;28;20271;-72
2022/11/03 09:54:58;;;;;;;11.48;2.72;;;15.00;99.90;;;;;;5112447;27;20027;-72
2022/11/03 09:57:26;;;;;;;7.75;2.50;;;15.00;99.90;;;;;;5107255;28;20472;-72
2022/11/03 09:59:53;;;;;;;11.23;2.50;;;15.00;99.90;;;;;;5111517;27;20023;-72
2022/11/03 10:02:21;;;;;;;10.07;2.53;;;15.00;99.90;;;;;;5104629;28;20032;-72
2022/11/03 10:04:47;;;;;;;12.27;2.97;;;15.10;99.90;;;;;;5104346;28;20031;-73
2022/11/03 10:07:13;;;;;;;7.50;2.42;;;15.10;99.90;;;;;;5102739;27;20380;-72
2022/11/03 10:09:44;;;;;;;10.20;2.35;;;15.10;99.90;;;;;;5110949;28;20020;-72
2022/11/03 10:12:11;;;;;;;7.25;2.45;;;15.20;99.90;;;;;;5095798;28;20032;-72
2022/11/03 10:14:36;;;;;;;6.25;2.20;;;15.20;99.90;;;;;;5108499;28;20460;-72
2022/11/03 10:17:02;;;;;;;7.68;2.55;;;15.20;99.90;;;;;;5096040;28;20032;-72
2022/11/03 10:19:28;;;;;;;8.43;2.35;;;15.20;99.90;;;;;;5113712;28;20038;-72
2022/11/03 10:21:53;;;;;;;9.50;2.50;;;15.20;99.90;;;;;;5107152;28;20030;-72
2022/11/03 10:24:19;;;;;;;5.28;2.20;;;15.10;99.90;;;;;;5110622;28;20468;-72
2022/11/03 10:26:51;;;;;;;12.80;3.20;;;15.20;99.90;;;;;;5110672;28;20094;-72
2022/11/03 10:29:27;;;;;;;5.72;2.03;;;15.20;99.90;;;;;;5092681;28;20403;-71
2022/11/03 10:31:57;;;;;;;9.35;2.35;;;15.30;99.90;;;;;;5102334;28;20480;-72
2022/11/03 10:34:23;;;;;;;9.85;2.30;;;15.30;99.90;;;;;;5106474;28;20089;-71
2022/11/03 10:36:48;;;;;;;6.10;1.95;;;15.30;99.90;;;;;;5114004;28;20027;-71
2022/11/03 10:39:24;;;;;;;8.50;2.30;;;15.30;99.90;;;;;;5105619;28;20033;-72
2022/11/03 10:41:57;;;;;;;10.70;2.28;;;15.40;99.90;;;;;;5110336;28;20039;-72
2022/11/03 10:44:26;;;;;;;6.55;1.73;;;15.40;99.90;;;;;;5111778;28;20036;-71
2022/11/03 10:46:57;;;;;;;5.80;2.30;;;15.30;99.90;;;;;;5088996;28;20020;-72
2022/11/03 10:49:23;;;;;;;8.25;2.25;;;15.30;99.90;;;;;;5108992;28;20082;-72
2022/11/03 10:51:51;;;;;;;5.97;2.17;;;15.30;99.90;;;;;;5109139;28;20032;-72
2022/11/03 10:54:20;;;;;;;7.22;1.88;;;15.40;99.90;;;;;;5106130;28;20084;-72
2022/11/03 10:56:47;;;;;;;7.50;2.10;;;15.40;99.90;;;;;;5110712;28;20062;-71
2022/11/03 10:59:30;;;;;;;8.00;2.13;;;15.40;99.90;;;;;;5105966;28;20051;-72
2022/11/03 11:01:57;;;;;;;12.55;2.25;;;15.50;99.90;;;;;;5103552;28;20039;-72
2022/11/03 11:04:23;;;;;;;8.00;2.40;;;15.50;99.90;;;;;;5111656;28;20012;-72
2022/11/03 11:06:49;;;;;;;8.65;2.35;;;15.60;99.90;;;;;;5108648;27;20391;-71
2022/11/03 11:09:25;;;;;;;7.72;2.08;;;15.60;99.90;;;;;;5108301;28;20160;-72
2022/11/03 11:12:01;;;;;;;6.88;2.30;;;15.70;99.90;;;;;;5110689;28;20020;-72
2022/11/03 11:14:27;;;;;;;8.98;2.28;;;15.80;99.90;;;;;;5110980;28;20023;-71
2022/11/03 11:16:55;;;;;;;9.00;2.40;;;15.80;99.90;;;;;;5109096;28;20022;-71
2022/11/03 11:19:22;;;;;;;9.85;2.60;;;15.80;99.90;;;;;;5103466;27;20114;-72
2022/11/03 11:21:49;;;;;;;5.13;2.03;;;15.80;99.90;;;;;;5109144;28;20028;-72
2022/11/03 11:24:43;;;;;;;11.82;1.90;;;15.90;99.90;;;;;;5103830;28;20028;-72
2022/11/03 11:27:30;;;;;;;5.63;1.73;;;15.90;99.90;;;;;;5104246;27;20023;-72
2022/11/03 11:29:57;;;;;;;8.18;2.28;;;15.90;99.90;;;;;;5082183;28;20104;-72
2022/11/03 11:32:41;;;;;;;5.68;2.08;;;15.90;99.90;;;;;;5107494;28;20480;-73
2022/11/03 11:35:21;;;;;;;6.30;1.75;;;15.90;99.90;;;;;;5107928;28;20028;-72
2022/11/03 11:37:47;;;;;;;5.97;2.10;;;15.90;99.90;;;;;;5088348;28;20472;-72
2022/11/03 11:40:13;;;;;;;9.27;2.08;;;15.90;99.90;;;;;;5108160;28;20035;-73
2022/11/03 11:43:01;;;;;;;7.88;1.70;;;16.00;99.90;;;;;;5085283;28;20426;-71
2022/11/03 11:46:03;;;;;;;4.78;1.80;;;16.00;99.90;;;;;;5104446;28;20098;-72
2022/11/03 11:48:29;;;;;;;5.07;1.58;;;16.00;99.90;;;;;;5105007;28;20128;-71
2022/11/03 11:50:58;;;;;;;4.07;1.70;;;16.00;99.90;;;;;;5107296;28;20484;-72
2022/11/03 11:53:25;;;;;;;3.83;1.63;;;16.10;99.90;;;;;;5108891;28;20023;-72
2022/11/03 11:55:55;;;;;;;4.55;2.00;;;16.10;99.90;;;;;;5109307;28;20030;-72
2022/11/03 11:58:39;;;;;;;4.38;1.60;;;16.20;99.90;;;;;;5105146;28;20485;-72
2022/11/03 12:01:23;;;;;;;6.13;1.50;;;16.10;99.90;;;;;;5089265;28;20035;-72
2022/11/03 12:03:50;;;;;;;13.20;2.10;;;16.20;99.90;;;;;;5111502;28;20034;-72
2022/11/03 12:06:16;;;;;;;12.27;2.45;;;16.20;99.90;;;;;;5105196;27;20102;-72
2022/11/03 12:08:42;;;;;;;5.97;1.60;;;16.20;99.90;;;;;;5111820;28;20047;-73
2022/11/03 12:11:11;;;;;;;7.78;1.48;;;16.30;99.90;;;;;;5106011;27;20100;-72
2022/11/03 12:13:46;;;;;;;5.45;2.00;;;16.30;99.90;;;;;;5103942;28;20379;-72
2022/11/03 12:16:31;;;;;;;6.28;1.88;;;16.30;99.90;;;;;;5083753;28;20429;-72
2022/11/03 12:19:36;;;;;;;8.15;1.58;;;16.30;99.90;;;;;;5104290;28;20118;-74
2022/11/03 12:22:04;;;;;;;6.18;1.90;;;16.30;99.90;;;;;;5104089;28;20361;-72
2022/11/03 12:24:29;;;;;;;5.63;2.03;;;16.40;99.90;;;;;;5105847;28;20032;-73
2022/11/03 12:26:55;;;;;;;6.38;2.50;;;16.50;99.90;;;;;;5104088;28;20038;-72
2022/11/03 12:29:21;;;;;;;2.83;1.48;;;16.50;99.90;;;;;;5085847;28;20015;-74
2022/11/03 12:31:47;;;;;;;5.85;1.90;;;16.40;99.90;;;;;;5106741;28;20549;-73
2022/11/03 12:34:13;;;;;;;4.95;2.38;;;16.40;99.90;;;;;;5104050;28;20480;-74
2022/11/03 12:36:39;;;;;;;4.18;1.50;;;16.40;99.90;;;;;;5103873;28;20071;-72
2022/11/03 12:39:04;;;;;;;5.78;1.80;;;16.50;99.90;;;;;;5099265;28;20099;-74
2022/11/03 12:41:30;;;;;;;5.22;1.92;;;16.50;99.90;;;;;;5106143;28;20023;-75
2022/11/03 12:43:55;;;;;;;4.43;1.65;;;16.60;99.90;;;;;;5101792;28;20433;-73
2022/11/03 12:46:22;;;;;;;6.30;1.90;;;16.50;99.90;;;;;;5106398;28;20064;-72
2022/11/03 12:48:48;;;;;;;6.90;2.40;;;16.60;99.90;;;;;;5088653;28;20020;-72
2022/11/03 12:51:16;;;;;;;4.10;2.00;;;16.60;99.90;;;;;;5104952;28;20094;-72
2022/11/03 12:53:42;;;;;;;4.70;1.60;;;16.60;99.90;;;;;;5106480;28;20422;-72
2022/11/03 12:56:09;;;;;;;8.30;2.47;;;16.70;99.90;;;;;;5103092;28;20613;-73
2022/11/03 12:58:34;;;;;;;7.15;2.08;;;16.70;99.90;;;;;;5102191;28;20043;-73
2022/11/03 13:01:00;;;;;;;9.35;2.15;;;16.80;99.90;;;;;;5099607;28;20124;-73
2022/11/03 13:03:26;;;;;;;3.40;1.80;;;16.70;99.90;;;;;;5104556;28;20036;-73
2022/11/03 13:05:51;;;;;;;4.68;1.73;;;16.70;99.90;;;;;;5087005;28;20028;-72
2022/11/03 13:08:17;;;;;;;5.97;1.60;;;16.70;99.90;;;;;;5106077;28;20419;-73
2022/11/03 13:10:42;;;;;;;6.53;1.55;;;16.60;99.90;;;;;;5105800;28;20103;-73
2022/11/03 13:13:08;;;;;;;6.90;1.63;;;16.60;99.90;;;;;;5108290;28;20055;-72